createdAt,value
2018-07-28T00:00:36.024Z,32.17
2018-07-28T00:01:36.190Z,32.65
2018-07-28T00:02:36.055Z,32.73
2018-07-28T00:03:36.069Z,32.54
2018-07-28T00:04:36.086Z,32.73
2018-07-28T00:05:36.097Z,32.73
2018-07-28T00:06:36.267Z,32.44
2018-07-28T00:07:36.117Z,32.92
2018-07-28T00:08:36.147Z,32.92
2018-07-28T00:09:36.147Z,32.73
2018-07-28T00:10:36.165Z,33.21
2018-07-28T00:11:36.327Z,33.40
2018-07-28T00:12:36.210Z,33.59
2018-07-28T00:13:36.224Z,33.79
2018-07-28T00:14:36.217Z,33.50
2018-07-28T00:15:36.251Z,33.89
2018-07-28T00:16:36.415Z,33.58
2018-07-28T00:17:36.286Z,33.87
2018-07-28T00:18:36.298Z,33.67
2018-07-28T00:19:36.289Z,33.87
2018-07-28T00:20:36.331Z,34.06
2018-07-28T00:21:36.493Z,34.06
2018-07-28T00:22:36.357Z,34.25
2018-07-28T00:23:36.378Z,34.35
2018-07-28T00:24:36.367Z,34.54
2018-07-28T00:25:36.401Z,34.25
2018-07-28T00:26:36.666Z,34.74
2018-07-28T00:27:36.436Z,34.74
2018-07-28T00:28:36.454Z,34.54
2018-07-28T00:29:36.464Z,34.64
2018-07-28T00:30:36.477Z,34.64
2018-07-28T00:31:36.491Z,34.64
2018-07-28T00:32:36.638Z,34.74
2018-07-28T00:33:36.522Z,34.54
2018-07-28T00:34:36.535Z,34.74
2018-07-28T00:35:36.556Z,34.64
2018-07-28T00:36:36.568Z,34.54
2018-07-28T00:37:36.578Z,34.45
2018-07-28T00:38:36.741Z,34.54
2018-07-28T00:39:36.592Z,34.54
2018-07-28T00:40:36.623Z,35.02
2018-07-28T00:41:36.640Z,35.22
2018-07-28T00:42:36.659Z,35.12
2018-07-28T00:43:36.900Z,35.12
2018-07-28T00:44:36.689Z,35.02
2018-07-28T00:45:36.700Z,35.12
2018-07-28T00:46:36.712Z,35.02
2018-07-28T00:47:36.733Z,34.92
2018-07-28T00:48:36.873Z,35.31
2018-07-28T00:49:36.763Z,35.31
2018-07-28T00:50:36.768Z,35.22
2018-07-28T00:51:36.783Z,35.22
2018-07-28T00:52:36.803Z,35.20
2018-07-28T00:53:36.967Z,35.39
2018-07-28T00:54:36.810Z,35.41
2018-07-28T00:55:36.854Z,35.31
2018-07-28T00:56:36.859Z,35.20
2018-07-28T00:57:36.885Z,35.20
2018-07-28T00:58:37.042Z,35.49
2018-07-28T00:59:36.888Z,35.70
2018-07-28T01:00:36.918Z,35.60
2018-07-28T01:01:36.933Z,35.68
2018-07-28T01:02:36.929Z,35.68
2018-07-28T01:03:37.118Z,35.58
2018-07-28T01:04:36.969Z,36.07
2018-07-28T01:05:36.998Z,35.70
2018-07-28T01:06:37.011Z,35.87
2018-07-28T01:07:37.026Z,35.87
2018-07-28T01:08:37.193Z,36.25
2018-07-28T01:09:37.054Z,36.07
2018-07-28T01:10:37.073Z,36.25
2018-07-28T01:11:37.084Z,36.25
2018-07-28T01:12:37.103Z,36.16
2018-07-28T01:13:37.266Z,36.25
2018-07-28T01:14:37.124Z,36.35
2018-07-28T01:15:37.144Z,36.53
2018-07-28T01:16:37.138Z,37.22
2018-07-28T01:17:37.173Z,37.51
2018-07-28T01:18:37.336Z,37.77
2018-07-28T01:19:37.195Z,38.07
2018-07-28T01:20:37.216Z,38.07
2018-07-28T01:21:37.234Z,38.07
2018-07-28T01:22:37.242Z,38.26
2018-07-28T01:23:37.409Z,38.07
2018-07-28T01:24:37.272Z,38.07
2018-07-28T01:25:37.292Z,38.45
2018-07-28T01:26:37.321Z,37.97
2018-07-28T01:27:37.316Z,38.35
2018-07-28T01:28:37.477Z,38.35
2018-07-28T01:29:37.347Z,38.26
2018-07-28T01:30:37.359Z,37.97
2018-07-28T01:31:37.372Z,37.97
2018-07-28T01:32:37.384Z,38.64
2018-07-28T01:33:37.557Z,38.84
2018-07-28T01:34:37.415Z,39.22
2018-07-28T01:35:37.437Z,38.74
2018-07-28T01:36:37.521Z,38.45
2018-07-28T01:37:37.536Z,38.26
2018-07-28T01:38:37.698Z,37.97
2018-07-28T01:39:37.557Z,38.54
2018-07-28T01:40:37.585Z,38.26
2018-07-28T01:41:37.591Z,38.54
2018-07-28T01:42:37.534Z,38.26
2018-07-28T01:43:37.550Z,38.93
2018-07-28T01:44:37.711Z,39.31
2018-07-28T01:45:37.579Z,39.41
2018-07-28T01:46:37.597Z,39.41
2018-07-28T01:47:37.590Z,38.84
2018-07-28T01:48:37.628Z,39.12
2018-07-28T01:49:37.789Z,39.12
2018-07-28T01:50:37.659Z,39.41
2018-07-28T01:51:37.652Z,39.70
2018-07-28T01:52:37.661Z,39.79
2018-07-28T01:53:37.694Z,39.89
2018-07-28T01:54:37.958Z,39.87
2018-07-28T01:55:37.728Z,39.79
2018-07-28T01:56:37.748Z,39.58
2018-07-28T01:57:37.752Z,39.49
2018-07-28T01:58:37.769Z,39.87
2018-07-28T01:59:37.978Z,40.25
2018-07-28T02:00:37.792Z,40.64
2018-07-28T02:01:37.797Z,40.93
2018-07-28T02:02:37.823Z,41.22
2018-07-28T02:03:37.830Z,41.12
2018-07-28T02:04:37.982Z,41.50
2018-07-28T02:05:37.867Z,41.50
2018-07-28T02:06:37.886Z,41.70
2018-07-28T02:07:37.892Z,41.79
2018-07-28T02:08:37.906Z,41.79
2018-07-28T02:09:38.073Z,42.06
2018-07-28T02:10:37.934Z,42.06
2018-07-28T02:11:37.949Z,41.96
2018-07-28T02:12:37.958Z,42.06
2018-07-28T02:13:37.978Z,42.16
2018-07-28T02:14:38.145Z,42.25
2018-07-28T02:15:38.010Z,42.35
2018-07-28T02:16:38.021Z,42.83
2018-07-28T02:17:38.014Z,42.83
2018-07-28T02:18:38.047Z,43.02
2018-07-28T02:19:38.214Z,42.73
2018-07-28T02:20:38.077Z,42.83
2018-07-28T02:21:38.091Z,42.73
2018-07-28T02:22:38.088Z,42.64
2018-07-28T02:23:38.114Z,42.64
2018-07-28T02:24:38.284Z,42.44
2018-07-28T02:25:38.150Z,42.54
2018-07-28T02:26:38.156Z,42.54
2018-07-28T02:27:38.173Z,42.16
2018-07-28T02:28:38.186Z,42.93
2018-07-28T02:29:38.348Z,43.02
2018-07-28T02:30:38.214Z,42.83
2018-07-28T02:31:38.230Z,42.83
2018-07-28T02:32:38.241Z,42.64
2018-07-28T02:33:38.255Z,42.83
2018-07-28T02:34:38.522Z,42.16
2018-07-28T02:35:38.284Z,42.44
2018-07-28T02:36:38.301Z,42.73
2018-07-28T02:37:38.309Z,42.73
2018-07-28T02:38:38.328Z,43.12
2018-07-28T02:39:38.342Z,42.83
2018-07-28T02:40:38.354Z,43.02
2018-07-28T02:41:38.378Z,43.12
2018-07-28T02:42:38.384Z,42.73
2018-07-28T02:43:38.378Z,43.40
2018-07-28T02:44:38.541Z,43.21
2018-07-28T02:45:38.409Z,43.21
2018-07-28T02:46:38.444Z,42.83
2018-07-28T02:47:38.449Z,42.93
2018-07-28T02:48:38.446Z,43.02
2018-07-28T02:49:38.628Z,43.12
2018-07-28T02:50:38.477Z,43.02
2018-07-28T02:51:38.507Z,43.21
2018-07-28T02:52:38.518Z,43.31
2018-07-28T02:53:38.537Z,43.21
2018-07-28T02:54:38.530Z,42.93
2018-07-28T02:55:38.713Z,43.31
2018-07-28T02:56:38.573Z,43.31
2018-07-28T02:57:38.602Z,43.12
2018-07-28T02:58:38.606Z,43.31
2018-07-28T02:59:38.618Z,43.21
2018-07-28T03:00:38.767Z,43.50
2018-07-28T03:01:38.644Z,43.50
2018-07-28T03:02:38.658Z,43.60
2018-07-28T03:03:38.667Z,43.70
2018-07-28T03:04:38.691Z,43.60
2018-07-28T03:05:38.852Z,43.31
2018-07-28T03:06:38.720Z,43.50
2018-07-28T03:07:38.756Z,43.88
2018-07-28T03:08:38.737Z,43.79
2018-07-28T03:09:38.759Z,43.98
2018-07-28T03:10:38.921Z,44.08
2018-07-28T03:11:38.784Z,43.98
2018-07-28T03:12:38.796Z,43.79
2018-07-28T03:13:38.809Z,43.88
2018-07-28T03:14:38.822Z,43.98
2018-07-28T03:15:39.071Z,43.88
2018-07-28T03:16:38.831Z,43.88
2018-07-28T03:17:38.861Z,43.79
2018-07-28T03:18:38.873Z,43.88
2018-07-28T03:19:38.886Z,43.88
2018-07-28T03:20:39.045Z,43.98
2018-07-28T03:21:38.926Z,43.88
2018-07-28T03:22:38.912Z,43.77
2018-07-28T03:23:38.924Z,43.88
2018-07-28T03:24:38.954Z,43.88
2018-07-28T03:25:39.127Z,43.77
2018-07-28T03:26:38.982Z,43.21
2018-07-28T03:27:39.000Z,43.70
2018-07-28T03:28:38.998Z,43.57
2018-07-28T03:29:39.029Z,43.60
2018-07-28T03:30:39.199Z,43.79
2018-07-28T03:31:39.055Z,43.60
2018-07-28T03:32:39.070Z,43.70
2018-07-28T03:33:39.082Z,43.60
2018-07-28T03:34:39.505Z,43.67
2018-07-28T03:35:39.247Z,43.70
2018-07-28T03:36:39.134Z,43.38
2018-07-28T03:37:39.139Z,43.29
2018-07-28T03:38:39.150Z,43.31
2018-07-28T03:39:39.159Z,43.31
2018-07-28T03:40:39.330Z,43.00
2018-07-28T03:41:39.189Z,43.19
2018-07-28T03:42:39.206Z,43.19
2018-07-28T03:43:39.220Z,43.12
2018-07-28T03:44:39.234Z,43.10
2018-07-28T03:45:39.378Z,42.90
2018-07-28T03:46:39.261Z,42.71
2018-07-28T03:47:39.256Z,43.00
2018-07-28T03:48:39.272Z,43.00
2018-07-28T03:49:39.281Z,43.10
2018-07-28T03:50:39.466Z,42.81
2018-07-28T03:51:39.330Z,43.19
2018-07-28T03:52:39.338Z,43.29
2018-07-28T03:53:39.335Z,43.48
2018-07-28T03:54:39.349Z,43.48
2018-07-28T03:55:39.484Z,43.48
2018-07-28T03:56:39.392Z,43.48
2018-07-28T03:57:39.408Z,43.19
2018-07-28T03:58:39.402Z,43.19
2018-07-28T03:59:39.411Z,43.57
2018-07-28T04:00:39.601Z,43.19
2018-07-28T04:01:39.459Z,43.38
2018-07-28T04:02:39.477Z,43.29
2018-07-28T04:03:39.489Z,43.29
2018-07-28T04:04:39.515Z,43.38
2018-07-28T04:05:39.504Z,43.38
2018-07-28T04:06:39.681Z,43.29
2018-07-28T04:07:39.543Z,43.48
2018-07-28T04:08:39.543Z,43.29
2018-07-28T04:09:39.572Z,43.29
2018-07-28T04:10:39.573Z,43.10
2018-07-28T04:11:39.599Z,42.90
2018-07-28T04:12:39.765Z,42.81
2018-07-28T04:13:39.623Z,43.38
2018-07-28T04:14:39.620Z,43.10
2018-07-28T04:15:39.650Z,43.38
2018-07-28T04:16:39.662Z,42.90
2018-07-28T04:17:39.823Z,42.90
2018-07-28T04:18:39.689Z,43.19
2018-07-28T04:19:39.706Z,43.00
2018-07-28T04:20:39.723Z,42.90
2018-07-28T04:21:39.732Z,43.29
2018-07-28T04:22:39.896Z,43.10
2018-07-28T04:23:39.766Z,43.00
2018-07-28T04:24:39.772Z,43.38
2018-07-28T04:25:39.768Z,43.38
2018-07-28T04:26:39.802Z,42.90
2018-07-28T04:27:39.941Z,43.00
2018-07-28T04:28:39.857Z,43.19
2018-07-28T04:29:39.839Z,43.38
2018-07-28T04:30:39.855Z,43.19
2018-07-28T04:31:39.851Z,43.38
2018-07-28T04:32:40.025Z,43.00
2018-07-28T04:33:39.872Z,43.38
2018-07-28T04:34:39.910Z,43.19
2018-07-28T04:35:39.919Z,43.48
2018-07-28T04:36:39.936Z,43.38
2018-07-28T04:37:40.103Z,43.38
2018-07-28T04:38:39.955Z,43.29
2018-07-28T04:39:39.976Z,43.38
2018-07-28T04:40:40.021Z,43.48
2018-07-28T04:41:39.994Z,43.29
2018-07-28T04:42:40.016Z,43.57
2018-07-28T04:43:40.029Z,43.10
2018-07-28T04:44:40.050Z,43.87
2018-07-28T04:45:40.056Z,43.19
2018-07-28T04:46:40.062Z,43.48
2018-07-28T04:47:40.225Z,43.77
2018-07-28T04:48:40.099Z,43.67
2018-07-28T04:49:40.108Z,43.74
2018-07-28T04:50:40.124Z,43.57
2018-07-28T04:51:40.137Z,43.55
2018-07-28T04:52:40.300Z,43.46
2018-07-28T04:53:40.160Z,43.74
2018-07-28T04:54:40.175Z,43.84
2018-07-28T04:55:40.165Z,43.57
2018-07-28T04:56:40.207Z,43.55
2018-07-28T04:57:40.361Z,43.55
2018-07-28T04:58:40.229Z,43.55
2018-07-28T04:59:40.243Z,43.36
2018-07-28T05:00:40.254Z,43.46
2018-07-28T05:01:40.268Z,43.55
2018-07-28T05:02:40.432Z,43.55
2018-07-28T05:03:40.294Z,43.94
2018-07-28T05:04:40.284Z,43.74
2018-07-28T05:05:40.319Z,43.84
2018-07-28T05:06:40.313Z,43.84
2018-07-28T05:07:40.595Z,43.94
2018-07-28T05:08:40.358Z,43.84
2018-07-28T05:09:40.373Z,43.65
2018-07-28T05:10:40.394Z,43.46
2018-07-28T05:11:40.402Z,43.84
2018-07-28T05:12:40.561Z,43.74
2018-07-28T05:13:40.405Z,43.94
2018-07-28T05:14:40.434Z,43.84
2018-07-28T05:15:40.451Z,43.84
2018-07-28T05:16:40.466Z,43.94
2018-07-28T05:17:40.479Z,43.94
2018-07-28T05:18:40.628Z,44.13
2018-07-28T05:19:40.507Z,44.13
2018-07-28T05:20:40.516Z,44.13
2018-07-28T05:21:40.533Z,44.42
2018-07-28T05:22:40.545Z,44.32
2018-07-28T05:23:40.614Z,44.32
2018-07-28T05:24:40.724Z,45.00
2018-07-28T05:25:40.586Z,44.90
2018-07-28T05:26:40.577Z,44.90
2018-07-28T05:27:40.608Z,44.70
2018-07-28T05:28:40.635Z,45.18
2018-07-28T05:29:40.808Z,44.90
2018-07-28T05:30:40.651Z,44.90
2018-07-28T05:31:40.694Z,45.00
2018-07-28T05:32:40.677Z,44.90
2018-07-28T05:33:40.687Z,45.09
2018-07-28T05:34:40.856Z,44.78
2018-07-28T05:35:40.721Z,44.87
2018-07-28T05:36:40.708Z,44.78
2018-07-28T05:37:40.739Z,44.87
2018-07-28T05:38:40.760Z,44.80
2018-07-28T05:39:40.900Z,44.87
2018-07-28T05:40:40.775Z,44.90
2018-07-28T05:41:40.796Z,45.07
2018-07-28T05:42:40.810Z,44.90
2018-07-28T05:43:40.814Z,44.97
2018-07-28T05:44:40.962Z,45.07
2018-07-28T05:45:40.853Z,45.36
2018-07-28T05:46:40.867Z,45.16
2018-07-28T05:47:40.874Z,45.16
2018-07-28T05:48:40.884Z,45.26
2018-07-28T05:49:41.042Z,45.26
2018-07-28T05:50:40.909Z,45.07
2018-07-28T05:51:40.909Z,45.09
2018-07-28T05:52:40.933Z,45.47
2018-07-28T05:53:40.964Z,45.16
2018-07-28T05:54:41.093Z,45.28
2018-07-28T05:55:40.969Z,45.37
2018-07-28T05:56:40.990Z,45.09
2018-07-28T05:57:41.003Z,45.28
2018-07-28T05:58:41.011Z,45.09
2018-07-28T05:59:41.176Z,45.47
2018-07-28T06:00:41.021Z,45.47
2018-07-28T06:01:41.035Z,45.47
2018-07-28T06:02:41.091Z,45.37
2018-07-28T06:03:41.078Z,45.67
2018-07-28T06:04:41.239Z,45.57
2018-07-28T06:05:41.083Z,45.37
2018-07-28T06:06:41.123Z,45.37
2018-07-28T06:07:41.128Z,45.47
2018-07-28T06:08:41.128Z,45.86
2018-07-28T06:09:41.309Z,45.76
2018-07-28T06:10:41.230Z,45.28
2018-07-28T06:11:41.179Z,45.86
2018-07-28T06:12:41.202Z,45.67
2018-07-28T06:13:41.212Z,45.76
2018-07-28T06:14:41.367Z,45.86
2018-07-28T06:15:41.231Z,45.76
2018-07-28T06:16:41.247Z,46.24
2018-07-28T06:17:41.248Z,46.05
2018-07-28T06:18:41.274Z,46.12
2018-07-28T06:19:41.437Z,46.05
2018-07-28T06:20:41.301Z,46.22
2018-07-28T06:21:41.315Z,46.03
2018-07-28T06:22:41.319Z,46.31
2018-07-28T06:23:41.323Z,46.22
2018-07-28T06:24:41.600Z,46.50
2018-07-28T06:25:41.350Z,46.50
2018-07-28T06:26:41.376Z,46.60
2018-07-28T06:27:41.388Z,46.70
2018-07-28T06:28:41.384Z,46.60
2018-07-28T06:29:41.404Z,47.08
2018-07-28T06:30:41.582Z,46.60
2018-07-28T06:31:41.472Z,46.89
2018-07-28T06:32:41.458Z,47.17
2018-07-28T06:33:41.464Z,47.08
2018-07-28T06:34:41.482Z,47.46
2018-07-28T06:35:41.492Z,47.56
2018-07-28T06:36:41.732Z,47.56
2018-07-28T06:37:41.520Z,47.56
2018-07-28T06:38:41.529Z,47.85
2018-07-28T06:39:41.541Z,47.46
2018-07-28T06:40:41.542Z,47.75
2018-07-28T06:41:41.724Z,47.66
2018-07-28T06:42:41.578Z,47.66
2018-07-28T06:43:41.599Z,47.75
2018-07-28T06:44:41.615Z,47.27
2018-07-28T06:45:41.622Z,47.85
2018-07-28T06:46:41.772Z,48.04
2018-07-28T06:47:41.642Z,48.33
2018-07-28T06:48:41.656Z,48.43
2018-07-28T06:49:41.674Z,48.43
2018-07-28T06:50:41.683Z,48.23
2018-07-28T06:51:41.950Z,48.23
2018-07-28T06:52:41.710Z,48.52
2018-07-28T06:53:41.809Z,48.52
2018-07-28T06:54:41.741Z,48.80
2018-07-28T06:55:41.754Z,48.61
2018-07-28T06:56:41.913Z,49.10
2018-07-28T06:57:41.773Z,49.29
2018-07-28T06:58:41.896Z,49.48
2018-07-28T06:59:41.799Z,49.86
2018-07-28T07:00:41.812Z,49.96
2018-07-28T07:01:41.978Z,49.57
2018-07-28T07:02:41.818Z,49.76
2018-07-28T07:03:41.847Z,49.57
2018-07-28T07:04:41.911Z,49.96
2018-07-28T07:05:41.878Z,50.05
2018-07-28T07:06:42.042Z,49.86
2018-07-28T07:07:41.900Z,50.15
2018-07-28T07:08:41.917Z,50.24
2018-07-28T07:09:41.931Z,50.22
2018-07-28T07:10:41.942Z,50.63
2018-07-28T07:11:42.203Z,50.82
2018-07-28T07:12:41.971Z,50.89
2018-07-28T07:13:41.981Z,50.82
2018-07-28T07:14:41.975Z,51.20
2018-07-28T07:15:42.007Z,51.18
2018-07-28T07:16:42.163Z,51.10
2018-07-28T07:17:42.015Z,51.08
2018-07-28T07:18:42.042Z,51.28
2018-07-28T07:19:42.051Z,51.56
2018-07-28T07:20:42.049Z,51.56
2018-07-28T07:21:42.233Z,51.56
2018-07-28T07:22:42.095Z,51.75
2018-07-28T07:23:42.083Z,52.23
2018-07-28T07:24:42.120Z,52.23
2018-07-28T07:25:42.130Z,52.23
2018-07-28T07:26:42.291Z,52.42
2018-07-28T07:27:42.155Z,52.91
2018-07-28T07:28:42.153Z,52.91
2018-07-28T07:29:42.182Z,52.91
2018-07-28T07:30:42.198Z,52.52
2018-07-28T07:31:42.353Z,53.09
2018-07-28T07:32:42.202Z,53.19
2018-07-28T07:33:42.213Z,53.48
2018-07-28T07:34:42.238Z,53.58
2018-07-28T07:35:42.251Z,53.58
2018-07-28T07:36:42.513Z,53.96
2018-07-28T07:37:42.285Z,54.34
2018-07-28T07:38:42.274Z,53.58
2018-07-28T07:39:42.304Z,54.15
2018-07-28T07:40:42.377Z,54.53
2018-07-28T07:41:42.369Z,54.41
2018-07-28T07:42:42.496Z,54.22
2018-07-28T07:43:42.333Z,54.63
2018-07-28T07:44:42.368Z,54.79
2018-07-28T07:45:42.357Z,54.70
2018-07-28T07:46:42.376Z,54.89
2018-07-28T07:47:42.651Z,54.99
2018-07-28T07:48:42.419Z,55.27
2018-07-28T07:49:42.432Z,55.27
2018-07-28T07:50:42.445Z,55.27
2018-07-28T07:51:42.452Z,55.36
2018-07-28T07:52:42.475Z,55.27
2018-07-28T07:53:42.662Z,55.36
2018-07-28T07:54:42.501Z,55.65
2018-07-28T07:55:42.494Z,55.65
2018-07-28T07:56:42.520Z,55.56
2018-07-28T07:57:42.525Z,55.46
2018-07-28T07:58:42.779Z,55.56
2018-07-28T07:59:42.558Z,55.65
2018-07-28T08:00:42.545Z,55.94
2018-07-28T08:01:42.578Z,55.94
2018-07-28T08:02:42.592Z,55.94
2018-07-28T08:03:42.757Z,56.04
2018-07-28T08:04:42.620Z,56.23
2018-07-28T08:05:42.611Z,56.23
2018-07-28T08:06:42.637Z,56.42
2018-07-28T08:07:42.653Z,56.42
2018-07-28T08:08:42.817Z,56.32
2018-07-28T08:09:42.680Z,56.71
2018-07-28T08:10:42.689Z,56.61
2018-07-28T08:11:42.704Z,56.61
2018-07-28T08:12:42.738Z,56.52
2018-07-28T08:13:42.856Z,57.19
2018-07-28T08:14:42.742Z,57.28
2018-07-28T08:15:42.736Z,57.09
2018-07-28T08:16:42.746Z,57.67
2018-07-28T08:17:42.764Z,57.48
2018-07-28T08:18:42.917Z,58.15
2018-07-28T08:19:42.796Z,57.76
2018-07-28T08:20:42.813Z,58.05
2018-07-28T08:21:42.821Z,58.24
2018-07-28T08:22:42.843Z,58.24
2018-07-28T08:23:42.998Z,58.34
2018-07-28T08:24:42.864Z,58.05
2018-07-28T08:25:42.869Z,58.50
2018-07-28T08:26:42.913Z,58.24
2018-07-28T08:27:42.896Z,59.27
2018-07-28T08:28:43.047Z,58.81
2018-07-28T08:29:42.922Z,58.44
2018-07-28T08:30:42.931Z,59.08
2018-07-28T08:31:42.959Z,59.08
2018-07-28T08:32:42.960Z,58.98
2018-07-28T08:33:43.125Z,59.45
2018-07-28T08:34:42.999Z,59.45
2018-07-28T08:35:42.992Z,59.65
2018-07-28T08:36:43.009Z,59.36
2018-07-28T08:37:43.038Z,59.36
2018-07-28T08:38:43.190Z,59.36
2018-07-28T08:39:43.047Z,59.27
2018-07-28T08:40:43.052Z,59.65
2018-07-28T08:41:43.070Z,59.65
2018-07-28T08:42:43.077Z,59.75
2018-07-28T08:43:43.244Z,59.75
2018-07-28T08:44:43.110Z,60.13
2018-07-28T08:45:43.125Z,59.84
2018-07-28T08:46:43.118Z,60.03
2018-07-28T08:47:43.141Z,59.94
2018-07-28T08:48:43.383Z,60.13
2018-07-28T08:49:43.165Z,60.03
2018-07-28T08:50:43.160Z,60.13
2018-07-28T08:51:43.188Z,60.32
2018-07-28T08:52:43.203Z,60.51
2018-07-28T08:53:43.364Z,60.32
2018-07-28T08:54:43.235Z,60.22
2018-07-28T08:55:43.215Z,60.03
2018-07-28T08:56:43.247Z,60.32
2018-07-28T08:57:43.265Z,60.32
2018-07-28T08:58:43.423Z,59.94
2018-07-28T08:59:43.270Z,60.99
2018-07-28T09:00:43.296Z,60.70
2018-07-28T09:01:43.314Z,60.99
2018-07-28T09:02:43.328Z,61.28
2018-07-28T09:03:43.489Z,60.99
2018-07-28T09:04:43.349Z,61.57
2018-07-28T09:05:43.340Z,60.89
2018-07-28T09:06:43.372Z,61.37
2018-07-28T09:07:43.382Z,61.18
2018-07-28T09:08:43.649Z,61.28
2018-07-28T09:09:43.411Z,61.08
2018-07-28T09:10:43.421Z,61.28
2018-07-28T09:11:43.431Z,61.37
2018-07-28T09:12:43.426Z,61.57
2018-07-28T09:13:43.434Z,61.85
2018-07-28T09:14:43.599Z,62.04
2018-07-28T09:15:43.479Z,61.76
2018-07-28T09:16:43.471Z,62.23
2018-07-28T09:17:43.498Z,62.23
2018-07-28T09:18:43.510Z,62.52
2018-07-28T09:19:43.674Z,62.52
2018-07-28T09:20:43.535Z,62.14
2018-07-28T09:21:43.549Z,62.33
2018-07-28T09:22:43.566Z,62.23
2018-07-28T09:23:43.579Z,62.43
2018-07-28T09:24:43.737Z,62.43
2018-07-28T09:25:43.596Z,62.23
2018-07-28T09:26:43.611Z,62.62
2018-07-28T09:27:43.621Z,62.52
2018-07-28T09:28:43.642Z,62.62
2018-07-28T09:29:43.800Z,62.71
2018-07-28T09:30:43.683Z,63.19
2018-07-28T09:31:43.674Z,62.90
2018-07-28T09:32:43.683Z,63.19
2018-07-28T09:33:43.697Z,63.00
2018-07-28T09:34:43.862Z,63.10
2018-07-28T09:35:43.709Z,63.48
2018-07-28T09:36:43.726Z,62.97
2018-07-28T09:37:43.814Z,63.86
2018-07-28T09:38:43.758Z,63.96
2018-07-28T09:39:43.920Z,64.05
2018-07-28T09:40:43.780Z,63.57
2018-07-28T09:41:43.799Z,63.76
2018-07-28T09:42:43.782Z,63.54
2018-07-28T09:43:43.793Z,63.48
2018-07-28T09:44:43.975Z,63.83
2018-07-28T09:45:43.840Z,64.25
2018-07-28T09:46:43.828Z,63.57
2018-07-28T09:47:43.857Z,63.96
2018-07-28T09:48:43.872Z,63.96
2018-07-28T09:49:44.031Z,64.15
2018-07-28T09:50:43.876Z,64.15
2018-07-28T09:51:43.920Z,63.96
2018-07-28T09:52:43.919Z,63.96
2018-07-28T09:53:43.938Z,63.96
2018-07-28T09:54:44.192Z,63.96
2018-07-28T09:55:43.952Z,63.86
2018-07-28T09:56:43.971Z,63.86
2018-07-28T09:57:43.981Z,64.05
2018-07-28T09:58:43.992Z,63.67
2018-07-28T09:59:44.154Z,64.15
2018-07-28T10:00:44.024Z,63.76
2018-07-28T10:01:44.029Z,64.05
2018-07-28T10:02:44.048Z,63.86
2018-07-28T10:03:44.041Z,63.96
2018-07-28T10:04:44.217Z,63.76
2018-07-28T10:05:44.078Z,63.86
2018-07-28T10:06:44.087Z,63.76
2018-07-28T10:07:44.106Z,64.43
2018-07-28T10:08:44.099Z,64.05
2018-07-28T10:09:44.276Z,63.86
2018-07-28T10:10:44.121Z,64.05
2018-07-28T10:11:44.161Z,64.25
2018-07-28T10:12:44.156Z,63.86
2018-07-28T10:13:44.169Z,64.05
2018-07-28T10:14:44.334Z,64.15
2018-07-28T10:15:44.177Z,63.39
2018-07-28T10:16:44.192Z,63.39
2018-07-28T10:17:44.225Z,63.19
2018-07-28T10:18:44.239Z,63.67
2018-07-28T10:19:44.393Z,63.48
2018-07-28T10:20:44.244Z,63.29
2018-07-28T10:21:44.271Z,63.19
2018-07-28T10:22:44.264Z,63.10
2018-07-28T10:23:44.292Z,63.10
2018-07-28T10:24:44.538Z,62.43
2018-07-28T10:25:44.299Z,62.52
2018-07-28T10:26:44.334Z,62.43
2018-07-28T10:27:44.340Z,62.43
2018-07-28T10:28:44.353Z,62.26
2018-07-28T10:29:44.521Z,62.46
2018-07-28T10:30:44.390Z,62.17
2018-07-28T10:31:44.395Z,61.88
2018-07-28T10:32:44.403Z,61.98
2018-07-28T10:33:44.419Z,61.31
2018-07-28T10:34:44.434Z,61.60
2018-07-28T10:35:44.593Z,61.21
2018-07-28T10:36:44.573Z,61.31
2018-07-28T10:37:44.468Z,61.11
2018-07-28T10:38:44.484Z,60.93
2018-07-28T10:39:44.489Z,60.35
2018-07-28T10:40:44.660Z,59.97
2018-07-28T10:41:44.520Z,60.19
2018-07-28T10:42:44.567Z,59.68
2018-07-28T10:43:44.527Z,59.71
2018-07-28T10:44:44.536Z,59.23
2018-07-28T10:45:44.797Z,59.42
2018-07-28T10:46:44.579Z,58.56
2018-07-28T10:47:44.594Z,57.70
2018-07-28T10:48:44.592Z,57.60
2018-07-28T10:49:44.615Z,57.41
2018-07-28T10:50:44.786Z,57.31
2018-07-28T10:51:44.636Z,57.34
2018-07-28T10:52:44.638Z,56.67
2018-07-28T10:53:44.673Z,56.86
2018-07-28T10:54:44.687Z,55.71
2018-07-28T10:55:44.842Z,55.52
2018-07-28T10:56:44.713Z,55.33
2018-07-28T10:57:44.723Z,54.78
2018-07-28T10:58:44.735Z,54.39
2018-07-28T10:59:44.734Z,54.01
2018-07-28T11:00:44.916Z,54.21
2018-07-28T11:01:44.773Z,53.34
2018-07-28T11:02:44.793Z,52.48
2018-07-28T11:03:44.801Z,52.22
2018-07-28T11:04:44.817Z,51.73
2018-07-28T11:05:44.984Z,51.54
2018-07-28T11:06:44.846Z,50.39
2018-07-28T11:07:44.855Z,50.01
2018-07-28T11:08:44.873Z,49.05
2018-07-28T11:09:44.882Z,49.26
2018-07-28T11:10:45.051Z,48.49
2018-07-28T11:11:44.910Z,48.11
2018-07-28T11:12:44.929Z,47.63
2018-07-28T11:13:44.937Z,47.82
2018-07-28T11:14:44.945Z,47.82
2018-07-28T11:15:45.103Z,47.53
2018-07-28T11:16:44.990Z,47.15
2018-07-28T11:17:44.981Z,46.86
2018-07-28T11:18:45.054Z,46.67
2018-07-28T11:19:45.029Z,46.41
2018-07-28T11:20:45.180Z,46.21
2018-07-28T11:21:45.064Z,45.83
2018-07-28T11:22:45.072Z,45.35
2018-07-28T11:23:45.096Z,44.96
2018-07-28T11:24:45.101Z,44.96
2018-07-28T11:25:45.267Z,45.25
2018-07-28T11:26:45.113Z,44.70
2018-07-28T11:27:45.151Z,44.29
2018-07-28T11:28:45.162Z,43.84
2018-07-28T11:29:45.178Z,43.93
2018-07-28T11:30:45.444Z,44.02
2018-07-28T11:31:45.288Z,43.84
2018-07-28T11:32:45.224Z,43.45
2018-07-28T11:33:45.240Z,42.87
2018-07-28T11:34:45.252Z,42.12
2018-07-28T11:35:45.523Z,41.93
2018-07-28T11:36:45.267Z,41.83
2018-07-28T11:37:45.364Z,42.32
2018-07-28T11:38:45.323Z,41.83
2018-07-28T11:39:45.331Z,41.35
2018-07-28T11:40:45.355Z,41.26
2018-07-28T11:41:45.524Z,41.45
2018-07-28T11:42:45.384Z,41.26
2018-07-28T11:43:45.396Z,40.41
2018-07-28T11:44:45.416Z,40.22
2018-07-28T11:45:45.433Z,39.74
2018-07-28T11:46:45.440Z,39.45
2018-07-28T11:47:45.617Z,39.26
2018-07-28T11:48:45.476Z,40.31
2018-07-28T11:49:45.495Z,40.80
2018-07-28T11:50:45.510Z,40.78
2018-07-28T11:51:45.521Z,41.28
2018-07-28T11:52:45.692Z,40.80
2018-07-28T11:53:45.565Z,40.31
2018-07-28T11:54:45.558Z,39.28
2018-07-28T11:55:45.594Z,39.56
2018-07-28T11:56:45.601Z,39.47
2018-07-28T11:57:45.780Z,38.22
2018-07-28T11:58:45.639Z,38.02
2018-07-28T11:59:45.655Z,37.74
2018-07-28T12:00:45.658Z,37.18
2018-07-28T12:01:45.765Z,36.31
2018-07-28T12:02:45.883Z,35.94
2018-07-28T12:03:45.723Z,35.56
2018-07-28T12:04:45.743Z,35.56
2018-07-28T12:05:45.761Z,35.17
2018-07-28T12:06:45.776Z,34.78
2018-07-28T12:07:45.951Z,34.78
2018-07-28T12:08:45.813Z,35.17
2018-07-28T12:09:45.833Z,35.44
2018-07-28T12:10:45.848Z,35.56
2018-07-28T12:11:45.860Z,35.46
2018-07-28T12:12:46.034Z,35.56
2018-07-28T12:13:45.901Z,36.43
2018-07-28T12:14:45.912Z,35.85
2018-07-28T12:15:45.932Z,35.75
2018-07-28T12:16:45.950Z,34.98
2018-07-28T12:17:46.122Z,34.22
2018-07-28T12:18:45.990Z,33.84
2018-07-28T12:19:46.003Z,33.26
2018-07-28T12:20:46.018Z,33.07
2018-07-28T12:21:46.052Z,33.55
2018-07-28T12:22:46.201Z,33.55
2018-07-28T12:23:46.071Z,32.89
2018-07-28T12:24:46.095Z,31.63
2018-07-28T12:25:46.091Z,31.63
2018-07-28T12:26:46.133Z,30.87
2018-07-28T12:27:46.298Z,30.59
2018-07-28T12:28:46.162Z,30.59
2018-07-28T12:29:46.165Z,30.03
2018-07-28T12:30:46.203Z,29.45
2018-07-28T12:31:46.224Z,29.55
2018-07-28T12:32:46.492Z,28.39
2018-07-28T12:33:46.260Z,28.48
2018-07-28T12:34:46.307Z,27.91
2018-07-28T12:35:46.297Z,28.39
2018-07-28T12:36:46.298Z,28.67
2018-07-28T12:37:46.338Z,29.34
2018-07-28T12:38:46.504Z,29.63
2018-07-28T12:39:46.377Z,29.45
2018-07-28T12:40:46.387Z,28.77
2018-07-28T12:41:46.411Z,28.29
2018-07-28T12:42:46.431Z,28.67
2018-07-28T12:43:46.454Z,28.29
2018-07-28T12:44:46.624Z,27.81
2018-07-28T12:45:46.497Z,27.82
2018-07-28T12:46:46.508Z,27.34
2018-07-28T12:47:46.529Z,26.39
2018-07-28T12:48:46.551Z,25.81
2018-07-28T12:49:46.718Z,25.72
2018-07-28T12:50:46.585Z,25.04
2018-07-28T12:51:46.607Z,24.86
2018-07-28T12:52:46.629Z,24.67